createdAt,value
2023-01-29T00:02:22.392Z,2.25
2023-01-29T00:04:51.063Z,2.29
2023-01-29T00:07:18.301Z,2.37
2023-01-29T00:09:45.523Z,2.34
2023-01-29T00:12:12.861Z,2.46
2023-01-29T00:14:40.124Z,2.42
2023-01-29T00:17:07.392Z,2.44
2023-01-29T00:19:35.998Z,2.48
2023-01-29T00:22:04.674Z,2.47
2023-01-29T00:24:31.958Z,2.48
2023-01-29T00:26:59.301Z,2.47
2023-01-29T00:29:26.575Z,2.52
2023-01-29T00:31:54.027Z,2.47
2023-01-29T00:34:21.323Z,2.43
2023-01-29T00:36:49.102Z,2.42
2023-01-29T00:39:17.710Z,2.40
2023-01-29T00:41:45.951Z,2.34
2023-01-29T00:44:13.396Z,2.32
2023-01-29T00:46:41.050Z,2.30
2023-01-29T00:49:09.179Z,2.27
2023-01-29T00:51:38.043Z,2.18
2023-01-29T00:54:06.132Z,2.19
2023-01-29T00:56:36.963Z,2.24
2023-01-29T00:59:04.555Z,2.27
2023-01-29T01:01:32.291Z,2.37
2023-01-29T01:03:59.623Z,2.39
2023-01-29T01:06:26.863Z,2.37
2023-01-29T01:08:54.187Z,2.38
2023-01-29T01:11:21.906Z,2.41
2023-01-29T01:13:50.470Z,2.50
2023-01-29T01:16:20.055Z,2.55
2023-01-29T01:18:47.468Z,2.47
2023-01-29T01:21:14.695Z,2.60
2023-01-29T01:23:42.969Z,2.56
2023-01-29T01:26:10.506Z,2.56
2023-01-29T01:28:37.835Z,2.55
2023-01-29T01:31:10.740Z,2.53
2023-01-29T01:33:38.522Z,2.57
2023-01-29T01:36:07.259Z,2.56
2023-01-29T01:38:34.755Z,2.61
2023-01-29T01:41:02.130Z,2.59
2023-01-29T01:43:46.248Z,2.52
2023-01-29T01:46:14.932Z,2.55
2023-01-29T01:48:43.860Z,2.59
2023-01-29T01:51:11.252Z,2.59
2023-01-29T01:53:43.315Z,2.55
2023-01-29T01:56:16.151Z,2.56
2023-01-29T01:58:47.648Z,2.63
2023-01-29T02:01:17.771Z,2.62
2023-01-29T02:03:50.489Z,2.61
2023-01-29T02:06:17.971Z,2.62
2023-01-29T02:08:53.168Z,2.61
2023-01-29T02:11:20.712Z,2.61
2023-01-29T02:13:48.006Z,2.69
2023-01-29T02:16:16.726Z,2.70
2023-01-29T02:18:44.018Z,2.62
2023-01-29T02:21:41.550Z,2.57
2023-01-29T02:24:45.616Z,2.61
2023-01-29T02:27:15.605Z,2.66
2023-01-29T02:29:55.281Z,2.72
2023-01-29T02:32:30.488Z,2.68
2023-01-29T02:35:10.098Z,2.72
2023-01-29T02:37:45.473Z,2.69
2023-01-29T02:40:21.143Z,2.77
2023-01-29T02:42:53.058Z,2.68
2023-01-29T02:45:31.793Z,2.76
2023-01-29T02:48:01.375Z,2.76
2023-01-29T02:50:34.615Z,2.75
2023-01-29T02:53:08.064Z,2.72
2023-01-29T02:55:41.597Z,2.80
2023-01-29T02:58:15.018Z,2.75
2023-01-29T03:00:46.792Z,2.79
2023-01-29T03:03:18.241Z,2.82
2023-01-29T03:06:02.752Z,2.70
2023-01-29T03:08:33.810Z,2.67
2023-01-29T03:11:04.005Z,2.69
2023-01-29T03:13:37.577Z,2.50
2023-01-29T03:16:13.955Z,2.45
2023-01-29T03:18:50.021Z,2.40
2023-01-29T03:21:22.711Z,2.34
2023-01-29T03:23:51.674Z,2.31
2023-01-29T03:26:22.802Z,2.31
2023-01-29T03:28:51.956Z,2.36
2023-01-29T03:31:21.426Z,2.29
2023-01-29T03:34:01.068Z,2.25
2023-01-29T03:36:34.797Z,2.23
2023-01-29T03:39:02.161Z,2.26
2023-01-29T03:41:34.564Z,2.26
2023-01-29T03:44:12.938Z,2.28
2023-01-29T03:46:48.790Z,2.27
2023-01-29T03:49:24.267Z,2.26
2023-01-29T03:51:58.856Z,2.28
2023-01-29T03:54:32.795Z,2.31
2023-01-29T03:57:06.560Z,2.34
2023-01-29T03:59:41.034Z,2.32
2023-01-29T04:02:35.103Z,2.28
2023-01-29T04:05:14.107Z,2.29
2023-01-29T04:07:56.806Z,2.31
2023-01-29T04:10:27.356Z,2.26
2023-01-29T04:12:58.895Z,2.23
2023-01-29T04:15:30.592Z,2.21
2023-01-29T04:17:59.821Z,2.19
2023-01-29T04:20:51.009Z,2.18
2023-01-29T04:23:22.868Z,2.20
2023-01-29T04:26:00.191Z,2.22
2023-01-29T04:28:34.509Z,2.16
2023-01-29T04:31:07.530Z,2.09
2023-01-29T04:33:44.505Z,2.15
2023-01-29T04:36:25.563Z,2.13
2023-01-29T04:39:05.144Z,2.09
2023-01-29T04:41:37.175Z,2.14
2023-01-29T04:44:15.512Z,2.13
2023-01-29T04:46:49.410Z,2.11
2023-01-29T04:49:29.807Z,2.11
2023-01-29T04:52:05.981Z,2.09
2023-01-29T04:54:44.890Z,2.07
2023-01-29T04:57:19.629Z,2.10
2023-01-29T04:59:52.289Z,2.17
2023-01-29T05:02:21.012Z,2.18
2023-01-29T05:04:50.486Z,2.28
2023-01-29T05:07:19.301Z,2.27
2023-01-29T05:09:48.437Z,2.29
2023-01-29T05:12:17.702Z,2.41
2023-01-29T05:14:47.280Z,2.45
2023-01-29T05:17:18.332Z,2.50
2023-01-29T05:19:46.312Z,2.55
2023-01-29T05:22:18.106Z,2.56
2023-01-29T05:24:45.477Z,2.54
2023-01-29T05:27:17.770Z,2.65
2023-01-29T05:29:47.123Z,2.64
2023-01-29T05:32:15.226Z,2.66
2023-01-29T05:34:42.542Z,2.74
2023-01-29T05:37:10.313Z,2.71
2023-01-29T05:39:39.061Z,2.67
2023-01-29T05:42:06.337Z,2.75
2023-01-29T05:44:33.851Z,2.78
2023-01-29T05:47:01.029Z,2.79
2023-01-29T05:49:28.516Z,2.78
2023-01-29T05:51:55.855Z,2.73
2023-01-29T05:54:23.168Z,2.73
2023-01-29T05:56:51.752Z,2.66
2023-01-29T05:59:19.131Z,2.68
2023-01-29T06:01:46.559Z,2.67
2023-01-29T06:04:13.896Z,2.61
2023-01-29T06:06:41.215Z,2.55
2023-01-29T06:09:10.279Z,2.50
2023-01-29T06:11:37.571Z,2.48
2023-01-29T06:14:06.977Z,2.60
2023-01-29T06:16:34.314Z,2.62
2023-01-29T06:19:01.594Z,2.58
2023-01-29T06:21:28.915Z,2.59
2023-01-29T06:23:56.388Z,2.65
2023-01-29T06:26:23.713Z,2.55
2023-01-29T06:28:51.522Z,2.59
2023-01-29T06:31:36.330Z,2.64
2023-01-29T06:34:04.968Z,2.71
2023-01-29T06:36:32.187Z,2.62
2023-01-29T06:38:59.640Z,2.70
2023-01-29T06:41:26.887Z,2.71
2023-01-29T06:43:54.325Z,2.74
2023-01-29T06:46:22.951Z,2.71
2023-01-29T06:48:50.239Z,2.80
2023-01-29T06:51:17.552Z,2.83
2023-01-29T06:53:46.414Z,2.78
2023-01-29T06:56:14.072Z,2.78
2023-01-29T06:58:41.350Z,2.79
2023-01-29T07:01:10.612Z,2.77
2023-01-29T07:03:39.843Z,2.74
2023-01-29T07:06:07.716Z,2.71
2023-01-29T07:08:36.360Z,2.76
2023-01-29T07:11:05.577Z,2.81
2023-01-29T07:13:33.461Z,2.79
2023-01-29T07:16:01.599Z,2.76
2023-01-29T07:18:29.393Z,2.73
2023-01-29T07:20:58.240Z,2.77
2023-01-29T07:23:25.764Z,2.80
2023-01-29T07:25:53.004Z,2.81
2023-01-29T07:28:20.444Z,2.83
2023-01-29T07:30:47.863Z,2.88
2023-01-29T07:33:15.259Z,2.89
2023-01-29T07:35:43.530Z,2.84
2023-01-29T07:38:12.229Z,2.91
2023-01-29T07:40:39.854Z,2.89
2023-01-29T07:43:07.766Z,2.89
2023-01-29T07:45:36.392Z,2.91
2023-01-29T07:48:04.770Z,2.92
2023-01-29T07:50:33.469Z,2.95
2023-01-29T07:53:01.362Z,2.94
2023-01-29T07:55:30.430Z,3.04
2023-01-29T07:57:58.603Z,2.98
2023-01-29T08:00:26.885Z,3.06
2023-01-29T08:02:54.441Z,3.09
2023-01-29T08:05:21.642Z,3.08
2023-01-29T08:08:05.712Z,3.16
2023-01-29T08:10:36.150Z,3.16
2023-01-29T08:13:04.948Z,3.09
2023-01-29T08:15:33.204Z,3.17
2023-01-29T08:18:01.647Z,3.28
2023-01-29T08:20:29.103Z,3.22
2023-01-29T08:23:00.135Z,3.35
2023-01-29T08:25:28.214Z,3.22
2023-01-29T08:27:58.128Z,3.34
2023-01-29T08:30:25.887Z,3.39
2023-01-29T08:32:53.146Z,3.34
2023-01-29T08:35:21.131Z,3.30
2023-01-29T08:37:55.570Z,3.36
2023-01-29T08:40:23.044Z,3.37
2023-01-29T08:42:50.251Z,3.33
2023-01-29T08:45:18.885Z,3.40
2023-01-29T08:47:47.365Z,3.42
2023-01-29T08:50:15.095Z,3.45
2023-01-29T08:52:43.279Z,3.44
2023-01-29T08:55:10.798Z,3.41
2023-01-29T08:57:38.621Z,3.50
2023-01-29T09:00:08.116Z,3.48
2023-01-29T09:02:37.029Z,3.43
2023-01-29T09:05:04.929Z,3.49
2023-01-29T09:07:32.277Z,3.49
2023-01-29T09:09:59.677Z,3.46
2023-01-29T09:12:27.060Z,3.62
2023-01-29T09:14:54.381Z,3.59
2023-01-29T09:17:21.696Z,3.64
2023-01-29T09:19:50.497Z,3.71
2023-01-29T09:22:17.867Z,3.69
2023-01-29T09:24:45.236Z,3.68
2023-01-29T09:27:12.569Z,3.70
2023-01-29T09:29:39.940Z,3.80
2023-01-29T09:32:07.470Z,3.67
2023-01-29T09:34:35.077Z,3.78
2023-01-29T09:37:03.716Z,3.72
2023-01-29T09:39:30.949Z,3.64
2023-01-29T09:42:08.121Z,3.78
2023-01-29T09:44:52.481Z,3.73
2023-01-29T09:47:21.181Z,3.71
2023-01-29T09:49:52.612Z,3.73
2023-01-29T09:52:25.803Z,3.68
2023-01-29T09:55:00.181Z,3.78
2023-01-29T09:57:34.500Z,3.75
2023-01-29T10:00:01.909Z,3.77
2023-01-29T10:02:48.291Z,3.81
2023-01-29T10:05:27.526Z,3.84
2023-01-29T10:08:26.572Z,3.78
2023-01-29T10:11:04.916Z,3.93
2023-01-29T10:13:44.250Z,3.94
2023-01-29T10:16:26.694Z,3.97
2023-01-29T10:19:19.740Z,4.16
2023-01-29T10:22:06.436Z,4.12
2023-01-29T10:24:38.483Z,4.15
2023-01-29T10:27:14.183Z,4.06
2023-01-29T10:29:43.560Z,4.13
2023-01-29T10:32:15.490Z,4.20
2023-01-29T10:34:48.105Z,4.30
2023-01-29T10:37:22.154Z,4.30
2023-01-29T10:39:51.100Z,4.34
2023-01-29T10:42:31.513Z,4.22
2023-01-29T10:45:18.599Z,4.29
2023-01-29T10:48:03.932Z,4.29
2023-01-29T10:50:50.873Z,4.30
2023-01-29T10:53:41.015Z,4.39
2023-01-29T10:56:24.784Z,4.30
2023-01-29T10:58:55.194Z,4.33
2023-01-29T11:01:22.856Z,4.24
2023-01-29T11:03:57.682Z,4.33
2023-01-29T11:06:29.652Z,4.36
2023-01-29T11:09:04.236Z,4.45
2023-01-29T11:11:38.494Z,4.52
2023-01-29T11:14:10.241Z,4.68
2023-01-29T11:16:42.249Z,4.61
2023-01-29T11:19:10.545Z,4.92
2023-01-29T11:21:51.680Z,4.79
2023-01-29T11:24:19.340Z,4.90
2023-01-29T11:26:49.794Z,5.04
2023-01-29T11:29:38.317Z,5.01
2023-01-29T11:32:10.699Z,5.02
2023-01-29T11:34:56.481Z,4.97
2023-01-29T11:37:31.141Z,4.86
2023-01-29T11:39:58.441Z,4.75
2023-01-29T11:42:30.857Z,4.86
2023-01-29T11:44:58.113Z,4.96
2023-01-29T11:47:28.730Z,4.90
2023-01-29T11:49:57.762Z,4.92
2023-01-29T11:52:27.566Z,4.96
2023-01-29T11:54:59.194Z,4.90
2023-01-29T11:57:32.297Z,5.11
2023-01-29T12:00:03.714Z,5.10
2023-01-29T12:02:38.701Z,4.89
2023-01-29T12:05:14.790Z,5.03
2023-01-29T12:07:44.193Z,5.00
2023-01-29T12:10:30.541Z,5.05
2023-01-29T12:13:06.587Z,5.02
2023-01-29T12:15:34.034Z,5.05
2023-01-29T12:18:12.718Z,4.96
2023-01-29T12:20:44.942Z,4.99
2023-01-29T12:23:23.785Z,4.93
2023-01-29T12:25:58.907Z,4.90
2023-01-29T12:28:41.156Z,4.98
2023-01-29T12:31:34.946Z,4.89
2023-01-29T12:34:10.724Z,4.95
2023-01-29T12:36:44.106Z,5.02
2023-01-29T12:39:16.423Z,4.96
2023-01-29T12:41:47.934Z,4.94
2023-01-29T12:44:20.815Z,4.89
2023-01-29T12:46:53.059Z,4.87
2023-01-29T12:49:24.720Z,4.85
2023-01-29T12:51:58.036Z,4.84
2023-01-29T12:54:32.995Z,4.81
2023-01-29T12:57:07.124Z,4.84
2023-01-29T12:59:41.665Z,4.90
2023-01-29T13:02:22.811Z,4.93
2023-01-29T13:04:57.789Z,4.87
2023-01-29T13:07:30.357Z,4.85
2023-01-29T13:10:05.000Z,4.94
2023-01-29T13:12:34.602Z,4.85
2023-01-29T13:15:15.168Z,4.83
2023-01-29T13:17:47.440Z,4.84
2023-01-29T13:20:21.079Z,4.92
2023-01-29T13:22:50.268Z,4.79
2023-01-29T13:25:19.843Z,4.86
2023-01-29T13:27:48.573Z,4.97
2023-01-29T13:30:28.669Z,4.85
2023-01-29T13:32:58.174Z,4.91
2023-01-29T13:35:25.672Z,4.90
2023-01-29T13:37:54.900Z,4.66
2023-01-29T13:40:25.433Z,4.67
2023-01-29T13:42:54.654Z,4.57
2023-01-29T13:45:24.866Z,4.61
2023-01-29T13:47:54.363Z,4.61
2023-01-29T13:50:29.885Z,4.59
2023-01-29T13:52:59.668Z,4.58
2023-01-29T13:55:31.176Z,4.58
2023-01-29T13:57:59.337Z,4.62
2023-01-29T14:00:56.901Z,4.67
2023-01-29T14:04:08.096Z,4.57
2023-01-29T14:06:40.047Z,4.54
2023-01-29T14:09:54.811Z,4.48
2023-01-29T14:12:44.419Z,4.50
2023-01-29T14:15:36.119Z,4.46
2023-01-29T14:18:16.134Z,4.52
2023-01-29T14:21:01.305Z,4.55
2023-01-29T14:23:47.420Z,4.42
2023-01-29T14:26:25.878Z,4.53
2023-01-29T14:29:01.344Z,4.52
2023-01-29T14:31:39.281Z,4.56
2023-01-29T14:34:14.331Z,4.51
2023-01-29T14:36:46.795Z,4.48
2023-01-29T14:39:24.649Z,4.38
2023-01-29T14:41:52.908Z,4.50
2023-01-29T14:45:05.896Z,4.42
2023-01-29T14:47:53.228Z,4.35
2023-01-29T14:50:55.885Z,4.28
2023-01-29T14:53:32.751Z,4.16
2023-01-29T14:56:03.079Z,4.16
2023-01-29T14:58:38.221Z,4.07
2023-01-29T15:01:13.329Z,4.06
2023-01-29T15:03:44.679Z,4.00
2023-01-29T15:06:18.936Z,4.00
2023-01-29T15:08:55.048Z,3.95
2023-01-29T15:11:32.151Z,3.95
2023-01-29T15:14:08.573Z,3.87
2023-01-29T15:16:44.947Z,3.86
2023-01-29T15:19:19.733Z,3.79
2023-01-29T15:22:06.501Z,3.82
2023-01-29T15:24:35.432Z,3.76
2023-01-29T15:27:03.423Z,3.76
2023-01-29T15:29:30.994Z,3.74
2023-01-29T15:31:58.534Z,3.68
2023-01-29T15:34:26.251Z,3.64
2023-01-29T15:36:53.653Z,3.60
2023-01-29T15:39:23.190Z,3.48
2023-01-29T15:42:10.549Z,3.41
2023-01-29T15:44:45.131Z,3.33
2023-01-29T15:47:14.685Z,3.31
2023-01-29T15:49:42.339Z,3.27
2023-01-29T15:52:17.811Z,3.26
2023-01-29T15:54:45.813Z,3.18
2023-01-29T15:57:24.406Z,3.18
2023-01-29T15:59:56.377Z,3.15
2023-01-29T16:02:41.502Z,3.17
2023-01-29T16:05:14.045Z,3.20
2023-01-29T16:07:42.285Z,3.18
2023-01-29T16:10:16.331Z,3.14
2023-01-29T16:12:45.757Z,3.16
2023-01-29T16:15:23.029Z,3.18
2023-01-29T16:17:50.408Z,3.21
2023-01-29T16:20:31.615Z,3.22
2023-01-29T16:23:00.043Z,3.15
2023-01-29T16:25:29.959Z,3.16
2023-01-29T16:27:58.860Z,3.15
2023-01-29T16:30:27.431Z,3.10
2023-01-29T16:33:02.429Z,3.11
2023-01-29T16:35:30.076Z,3.11
2023-01-29T16:38:02.369Z,3.11
2023-01-29T16:40:32.628Z,3.11
2023-01-29T16:43:45.373Z,3.16
2023-01-29T16:46:26.450Z,3.16
2023-01-29T16:48:54.368Z,3.13
2023-01-29T16:51:25.029Z,3.13
2023-01-29T16:53:57.736Z,3.12
2023-01-29T16:56:26.695Z,3.09
2023-01-29T16:58:55.925Z,3.05
2023-01-29T17:01:25.761Z,3.00
2023-01-29T17:03:59.365Z,2.98
2023-01-29T17:06:27.541Z,2.98
2023-01-29T17:08:55.218Z,2.94
2023-01-29T17:11:32.769Z,2.93
2023-01-29T17:14:01.618Z,2.86
2023-01-29T17:16:31.202Z,2.82
2023-01-29T17:18:59.055Z,2.86
2023-01-29T17:21:26.794Z,2.81
2023-01-29T17:23:54.195Z,2.89
2023-01-29T17:26:22.943Z,2.87
2023-01-29T17:28:51.393Z,2.85
2023-01-29T17:31:22.796Z,2.85
2023-01-29T17:33:50.183Z,2.85
2023-01-29T17:36:18.168Z,2.85
2023-01-29T17:38:45.547Z,2.84
2023-01-29T17:41:22.380Z,2.87
2023-01-29T17:43:49.605Z,2.85
2023-01-29T17:46:20.210Z,2.89
2023-01-29T17:48:49.077Z,2.89
2023-01-29T17:51:17.895Z,2.90
2023-01-29T17:53:46.990Z,2.89
2023-01-29T17:56:16.490Z,2.88
2023-01-29T17:58:44.121Z,2.89
2023-01-29T18:01:11.354Z,2.87
2023-01-29T18:03:38.751Z,2.85
2023-01-29T18:06:08.699Z,2.91
2023-01-29T18:08:38.101Z,2.88
2023-01-29T18:11:05.748Z,2.92
2023-01-29T18:13:33.033Z,2.93
2023-01-29T18:16:00.592Z,2.98
2023-01-29T18:18:27.974Z,3.01
2023-01-29T18:20:55.190Z,3.05
2023-01-29T18:23:23.861Z,3.07
2023-01-29T18:25:51.130Z,3.06
2023-01-29T18:28:18.651Z,3.05
2023-01-29T18:30:46.662Z,3.07
2023-01-29T18:33:14.518Z,3.09
2023-01-29T18:35:43.530Z,3.07
2023-01-29T18:38:10.837Z,3.10
2023-01-29T18:40:39.509Z,3.10
2023-01-29T18:43:06.851Z,3.07
2023-01-29T18:45:34.159Z,3.04
2023-01-29T18:48:01.590Z,3.08
2023-01-29T18:50:28.785Z,3.11
2023-01-29T18:52:56.601Z,3.15
2023-01-29T18:55:24.028Z,3.10
2023-01-29T18:58:26.702Z,3.09
2023-01-29T19:00:41.384Z,3.09
2023-01-29T19:03:08.638Z,3.12
2023-01-29T19:05:35.929Z,3.12
2023-01-29T19:08:03.163Z,3.15
2023-01-29T19:10:30.504Z,3.14
2023-01-29T19:12:59.064Z,3.13
2023-01-29T19:15:26.569Z,3.12
2023-01-29T19:17:54.302Z,3.16
2023-01-29T19:20:21.706Z,3.16
2023-01-29T19:22:49.075Z,3.17
2023-01-29T19:25:17.287Z,3.22
2023-01-29T19:27:45.264Z,3.22
2023-01-29T19:30:14.418Z,3.25
2023-01-29T19:32:41.752Z,3.23
2023-01-29T19:35:09.130Z,3.29
2023-01-29T19:37:36.444Z,3.30
2023-01-29T19:40:04.516Z,3.35
2023-01-29T19:42:31.685Z,3.40
2023-01-29T19:44:59.041Z,3.42
2023-01-29T19:47:27.652Z,3.42
2023-01-29T19:49:54.988Z,3.46
2023-01-29T19:52:22.344Z,3.45
2023-01-29T19:54:49.637Z,3.46
2023-01-29T19:57:16.945Z,3.49
2023-01-29T19:59:45.906Z,3.53
2023-01-29T20:02:13.241Z,3.59
2023-01-29T20:04:41.865Z,3.50
2023-01-29T20:07:09.120Z,3.57
2023-01-29T20:09:36.466Z,3.57
2023-01-29T20:12:04.023Z,3.59
2023-01-29T20:14:31.315Z,3.58
2023-01-29T20:16:58.474Z,3.59
2023-01-29T20:19:25.771Z,3.64
2023-01-29T20:21:54.410Z,3.59
2023-01-29T20:24:21.883Z,3.62
2023-01-29T20:26:49.224Z,3.65
2023-01-29T20:29:16.500Z,3.71
2023-01-29T20:31:43.718Z,3.71
2023-01-29T20:34:11.049Z,3.80
2023-01-29T20:36:38.335Z,3.75
2023-01-29T20:39:07.060Z,3.73
2023-01-29T20:41:34.516Z,3.75
2023-01-29T20:44:01.982Z,3.76
2023-01-29T20:46:29.293Z,3.77
2023-01-29T20:48:56.559Z,3.75
2023-01-29T20:51:24.065Z,3.79
2023-01-29T20:53:51.544Z,3.76
2023-01-29T20:56:32.044Z,3.76
2023-01-29T20:59:04.092Z,3.76
2023-01-29T21:01:31.341Z,3.75
2023-01-29T21:04:00.234Z,3.78
2023-01-29T21:06:27.623Z,3.79
2023-01-29T21:08:55.175Z,3.80
2023-01-29T21:11:24.076Z,3.79
2023-01-29T21:13:51.633Z,3.86
2023-01-29T21:16:19.089Z,3.87
2023-01-29T21:18:46.673Z,3.88
2023-01-29T21:21:14.006Z,3.85
2023-01-29T21:23:41.335Z,3.82
2023-01-29T21:26:08.768Z,3.90
2023-01-29T21:28:37.559Z,3.91
2023-01-29T21:31:06.054Z,3.89
2023-01-29T21:33:33.437Z,3.85
2023-01-29T21:36:01.020Z,3.77
2023-01-29T21:38:28.504Z,3.75
2023-01-29T21:40:59.381Z,3.75
2023-01-29T21:43:26.922Z,3.74
2023-01-29T21:46:00.559Z,3.79
2023-01-29T21:48:27.888Z,3.76
2023-01-29T21:50:55.128Z,3.78
2023-01-29T21:53:22.355Z,3.75
2023-01-29T21:55:49.899Z,3.73
2023-01-29T21:58:17.196Z,3.75
2023-01-29T22:00:44.842Z,3.75
2023-01-29T22:03:13.590Z,3.78
2023-01-29T22:05:40.926Z,3.75
2023-01-29T22:08:08.184Z,3.72
2023-01-29T22:10:35.614Z,3.70
2023-01-29T22:13:03.032Z,3.69
2023-01-29T22:15:30.299Z,3.65
2023-01-29T22:17:57.582Z,3.65
2023-01-29T22:20:26.265Z,3.61
2023-01-29T22:22:53.558Z,3.58
2023-01-29T22:25:20.840Z,3.57
2023-01-29T22:27:48.162Z,3.57
2023-01-29T22:30:16.140Z,3.58
2023-01-29T22:32:43.717Z,3.60
2023-01-29T22:35:10.943Z,3.60
2023-01-29T22:37:39.625Z,3.62
2023-01-29T22:40:08.318Z,3.63
2023-01-29T22:42:35.634Z,3.66
2023-01-29T22:45:02.991Z,3.67
2023-01-29T22:47:32.395Z,3.70
2023-01-29T22:49:59.608Z,3.71
2023-01-29T22:52:27.014Z,3.73
2023-01-29T22:54:55.757Z,3.75
2023-01-29T22:57:23.079Z,3.79
2023-01-29T22:59:50.340Z,3.79
2023-01-29T23:02:17.684Z,3.81
2023-01-29T23:04:44.899Z,3.84
2023-01-29T23:07:12.275Z,3.89
2023-01-29T23:09:39.546Z,3.86
2023-01-29T23:12:08.351Z,3.91
2023-01-29T23:14:36.575Z,3.92
2023-01-29T23:17:03.937Z,3.89
2023-01-29T23:19:31.189Z,3.91
2023-01-29T23:21:58.551Z,3.92
2023-01-29T23:24:25.833Z,3.89
2023-01-29T23:26:53.153Z,3.96
2023-01-29T23:29:21.801Z,4.00
2023-01-29T23:31:49.108Z,4.02
2023-01-29T23:34:16.481Z,3.99
2023-01-29T23:36:43.794Z,4.04
2023-01-29T23:39:11.111Z,4.08
2023-01-29T23:41:38.400Z,4.11
2023-01-29T23:44:05.748Z,4.16
2023-01-29T23:46:34.731Z,4.15
2023-01-29T23:49:01.985Z,4.20
2023-01-29T23:51:29.274Z,4.27
2023-01-29T23:53:56.571Z,4.34
2023-01-29T23:56:23.926Z,4.32
2023-01-29T23:58:53.416Z,4.33
